createdAt,value
2019-06-26T00:00:50.502Z,95279.16
2019-06-26T00:15:53.950Z,95287.16
2019-06-26T00:30:50.857Z,95282.30
2019-06-26T00:45:50.970Z,95287.38
2019-06-26T01:00:53.724Z,95286.61
2019-06-26T01:15:51.244Z,95293.33
2019-06-26T01:30:51.238Z,95299.66
2019-06-26T01:45:51.355Z,95292.81
2019-06-26T02:00:51.411Z,95301.16
2019-06-26T02:15:50.709Z,95296.94
2019-06-26T02:30:56.783Z,95304.26
2019-06-26T02:45:50.663Z,95308.03
2019-06-26T03:00:56.620Z,95298.79
2019-06-26T03:15:57.047Z,95317.74
2019-06-26T03:30:51.042Z,95313.75
2019-06-26T03:45:50.983Z,95301.78
2019-06-26T04:00:53.900Z,95304.75
2019-06-26T04:15:51.477Z,95316.23
2019-06-26T04:30:57.362Z,95326.47
2019-06-26T04:45:58.056Z,95330.98
2019-06-26T05:00:57.305Z,95337.19
2019-06-26T05:15:50.867Z,95347.62
2019-06-26T05:30:53.501Z,95353.70
2019-06-26T05:45:50.785Z,95365.34
2019-06-26T06:00:50.794Z,95380.06
2019-06-26T06:15:51.371Z,95384.38
2019-06-26T06:30:51.174Z,95385.13
2019-06-26T06:45:51.054Z,95386.27
2019-06-26T07:00:51.080Z,95385.77
2019-06-26T07:15:50.589Z,95392.11
2019-06-26T07:30:50.587Z,95416.48
2019-06-26T07:45:59.571Z,95407.80
2019-06-26T08:00:50.421Z,95412.31
2019-06-26T08:15:50.976Z,95413.75
2019-06-26T08:30:56.843Z,95411.88
2019-06-26T08:45:50.860Z,95429.67
2019-06-26T09:00:56.826Z,95430.80
2019-06-26T09:15:51.322Z,95435.94
2019-06-26T09:30:51.349Z,95428.95
2019-06-26T09:45:51.273Z,95408.59
2019-06-26T10:00:51.308Z,95415.84
2019-06-26T10:15:50.679Z,95401.73
2019-06-26T10:30:56.594Z,95388.14
2019-06-26T10:45:50.637Z,95377.10
2019-06-26T11:00:50.659Z,95367.13
2019-06-26T11:15:51.062Z,95357.95
2019-06-26T11:30:51.037Z,95342.49
2019-06-26T11:45:51.018Z,95336.91
2019-06-26T12:00:51.093Z,95328.44
2019-06-26T12:15:50.344Z,95318.61
2019-06-26T12:30:51.531Z,95312.38
2019-06-26T12:45:51.286Z,95287.83
2019-06-26T13:00:51.361Z,95294.96
2019-06-26T13:15:51.396Z,95260.45
2019-06-26T13:30:53.357Z,95269.70
2019-06-26T13:45:50.779Z,95261.55
2019-06-26T14:00:50.659Z,95254.66
2019-06-26T14:15:55.977Z,95245.09
2019-06-26T14:30:53.927Z,95233.97
2019-06-26T14:45:50.933Z,95242.63
2019-06-26T15:00:50.943Z,95219.26
2019-06-26T15:15:50.530Z,95214.34
2019-06-26T15:30:54.008Z,95218.11
2019-06-26T15:45:52.417Z,95215.82
2019-06-26T16:00:50.450Z,95206.89
2019-06-26T16:15:53.990Z,95248.31
2019-06-26T16:30:50.931Z,95252.36
2019-06-26T16:45:52.106Z,95218.15
2019-06-26T17:00:50.900Z,95220.94
2019-06-26T17:15:51.516Z,95208.56
2019-06-26T17:30:52.977Z,95205.56
2019-06-26T17:45:52.750Z,95199.77
2019-06-26T18:00:57.232Z,95206.89
2019-06-26T18:15:50.858Z,95212.55
2019-06-26T18:30:56.649Z,95216.98
2019-06-26T18:45:50.619Z,95249.75
2019-06-26T19:00:50.668Z,95253.12
2019-06-26T19:15:51.120Z,95253.94
2019-06-26T19:30:51.084Z,95246.00
2019-06-26T19:45:51.093Z,95243.73
2019-06-26T20:00:57.150Z,95252.63
2019-06-26T21:15:57.674Z,95241.52
2019-06-26T21:30:53.111Z,95242.20
2019-06-26T21:45:50.774Z,95238.58
2019-06-26T22:00:56.929Z,95233.70
2019-06-26T22:15:51.304Z,95239.60
2019-06-26T22:30:51.410Z,95224.80
2019-06-26T22:45:51.291Z,95208.05
2019-06-26T23:00:51.378Z,95203.61
2019-06-26T23:15:51.053Z,95198.48
2019-06-26T23:30:56.633Z,95186.70
2019-06-26T23:45:50.668Z,95185.75
